sensor_id;sensor_type;location;lat;lon;timestamp;pressure;altitude;pressure_sealevel;temperature;humidity
59877;BME280;45749;51.140;17.184;2022-12-29T00:00:04;99839.02;;;6.38;83.69
59877;BME280;45749;51.140;17.184;2022-12-29T00:02:31;99833.42;;;6.37;83.78
59877;BME280;45749;51.140;17.184;2022-12-29T00:04:57;99829.48;;;6.37;83.73
59877;BME280;45749;51.140;17.184;2022-12-29T00:07:23;99833.30;;;6.38;83.76
59877;BME280;45749;51.140;17.184;2022-12-29T00:09:49;99832.47;;;6.38;83.68
59877;BME280;45749;51.140;17.184;2022-12-29T00:12:15;99827.70;;;6.37;83.70
59877;BME280;45749;51.140;17.184;2022-12-29T00:14:41;99833.78;;;6.38;83.76
59877;BME280;45749;51.140;17.184;2022-12-29T00:17:25;99833.70;;;6.39;83.69
59877;BME280;45749;51.140;17.184;2022-12-29T00:19:50;99826.75;;;6.38;83.66
59877;BME280;45749;51.140;17.184;2022-12-29T00:22:35;99821.91;;;6.39;83.65
59877;BME280;45749;51.140;17.184;2022-12-29T00:25:19;99817.22;;;6.37;83.38
59877;BME280;45749;51.140;17.184;2022-12-29T00:28:04;99822.83;;;6.38;83.47
59877;BME280;45749;51.140;17.184;2022-12-29T00:30:51;99815.36;;;6.39;83.32
59877;BME280;45749;51.140;17.184;2022-12-29T00:33:35;99811.78;;;6.40;83.27
59877;BME280;45749;51.140;17.184;2022-12-29T00:36:32;99817.50;;;6.40;83.31
59877;BME280;45749;51.140;17.184;2022-12-29T00:39:04;99813.21;;;6.39;83.29
59877;BME280;45749;51.140;17.184;2022-12-29T00:42:04;99807.02;;;6.40;83.02
59877;BME280;45749;51.140;17.184;2022-12-29T00:44:49;99798.48;;;6.43;83.01
59877;BME280;45749;51.140;17.184;2022-12-29T00:47:15;99788.37;;;6.44;82.70
59877;BME280;45749;51.140;17.184;2022-12-29T00:49:41;99784.63;;;6.48;82.74
59877;BME280;45749;51.140;17.184;2022-12-29T00:52:09;99784.05;;;6.50;82.55
59877;BME280;45749;51.140;17.184;2022-12-29T00:54:38;99777.30;;;6.53;82.59
59877;BME280;45749;51.140;17.184;2022-12-29T00:57:07;99779.84;;;6.55;82.44
59877;BME280;45749;51.140;17.184;2022-12-29T00:59:35;99767.92;;;6.56;82.45
59877;BME280;45749;51.140;17.184;2022-12-29T01:02:01;99771.30;;;6.58;82.33
59877;BME280;45749;51.140;17.184;2022-12-29T01:04:27;99771.19;;;6.60;82.31
59877;BME280;45749;51.140;17.184;2022-12-29T01:06:53;99774.64;;;6.61;82.18
59877;BME280;45749;51.140;17.184;2022-12-29T01:09:20;99765.86;;;6.62;82.12
59877;BME280;45749;51.140;17.184;2022-12-29T01:12:06;99770.16;;;6.63;82.14
59877;BME280;45749;51.140;17.184;2022-12-29T01:14:33;99755.38;;;6.62;82.17
59877;BME280;45749;51.140;17.184;2022-12-29T01:17:00;99757.13;;;6.61;82.12
59877;BME280;45749;51.140;17.184;2022-12-29T01:19:26;99761.06;;;6.61;82.26
59877;BME280;45749;51.140;17.184;2022-12-29T01:21:52;99755.45;;;6.60;82.34
59877;BME280;45749;51.140;17.184;2022-12-29T01:24:19;99756.41;;;6.59;82.37
59877;BME280;45749;51.140;17.184;2022-12-29T01:26:46;99759.50;;;6.58;82.32
59877;BME280;45749;51.140;17.184;2022-12-29T01:29:12;99760.90;;;6.57;82.27
59877;BME280;45749;51.140;17.184;2022-12-29T01:31:38;99762.69;;;6.56;82.36
59877;BME280;45749;51.140;17.184;2022-12-29T01:34:05;99752.75;;;6.54;82.31
59877;BME280;45749;51.140;17.184;2022-12-29T01:36:31;99751.56;;;6.53;82.43
59877;BME280;45749;51.140;17.184;2022-12-29T01:38:57;99743.78;;;6.51;82.43
59877;BME280;45749;51.140;17.184;2022-12-29T01:41:23;99746.16;;;6.49;82.48
59877;BME280;45749;51.140;17.184;2022-12-29T01:43:52;99747.19;;;6.46;82.40
59877;BME280;45749;51.140;17.184;2022-12-29T01:46:50;99741.19;;;6.44;82.48
59877;BME280;45749;51.140;17.184;2022-12-29T01:49:24;99740.95;;;6.42;82.48
59877;BME280;45749;51.140;17.184;2022-12-29T01:52:01;99741.39;;;6.41;82.56
59877;BME280;45749;51.140;17.184;2022-12-29T01:54:38;99748.89;;;6.40;82.65
59877;BME280;45749;51.140;17.184;2022-12-29T01:57:08;99744.20;;;6.38;82.59
59877;BME280;45749;51.140;17.184;2022-12-29T01:59:39;99733.95;;;6.35;82.56
59877;BME280;45749;51.140;17.184;2022-12-29T02:02:07;99733.20;;;6.33;82.60
59877;BME280;45749;51.140;17.184;2022-12-29T02:04:34;99727.20;;;6.31;82.63
59877;BME280;45749;51.140;17.184;2022-12-29T02:07:07;99721.23;;;6.29;82.68
59877;BME280;45749;51.140;17.184;2022-12-29T02:09:34;99717.75;;;6.28;82.81
59877;BME280;45749;51.140;17.184;2022-12-29T02:12:01;99715.61;;;6.28;82.78
59877;BME280;45749;51.140;17.184;2022-12-29T02:14:28;99707.38;;;6.27;82.80
59877;BME280;45749;51.140;17.184;2022-12-29T02:17:18;99710.84;;;6.27;82.84
59877;BME280;45749;51.140;17.184;2022-12-29T02:20:16;99698.21;;;6.27;82.74
59877;BME280;45749;51.140;17.184;2022-12-29T02:34:29;99696.42;;;6.27;82.79
59877;BME280;45749;51.140;17.184;2022-12-29T02:46:08;99696.91;;;6.27;82.45
59877;BME280;45749;51.140;17.184;2022-12-29T02:48:46;99687.73;;;6.27;82.31
59877;BME280;45749;51.140;17.184;2022-12-29T02:51:21;99689.99;;;6.26;82.21
59877;BME280;45749;51.140;17.184;2022-12-29T02:54:05;99674.75;;;6.25;82.17
59877;BME280;45749;51.140;17.184;2022-12-29T02:56:49;99678.20;;;6.26;81.98
59877;BME280;45749;51.140;17.184;2022-12-29T02:59:16;99673.44;;;6.25;81.88
59877;BME280;45749;51.140;17.184;2022-12-29T03:10:55;99665.10;;;6.26;81.88
59877;BME280;45749;51.140;17.184;2022-12-29T03:21:55;99666.21;;;6.29;81.63
59877;BME280;45749;51.140;17.184;2022-12-29T03:24:54;99668.44;;;6.28;81.66
59877;BME280;45749;51.140;17.184;2022-12-29T03:27:25;99657.48;;;6.28;81.69
59877;BME280;45749;51.140;17.184;2022-12-29T03:29:57;99660.02;;;6.30;81.62
59877;BME280;45749;51.140;17.184;2022-12-29T03:32:28;99660.38;;;6.31;81.58
59877;BME280;45749;51.140;17.184;2022-12-29T03:34:56;99659.91;;;6.31;81.63
59877;BME280;45749;51.140;17.184;2022-12-29T03:37:29;99666.02;;;6.32;81.55
59877;BME280;45749;51.140;17.184;2022-12-29T03:39:58;99670.30;;;6.33;81.49
59877;BME280;45749;51.140;17.184;2022-12-29T03:42:26;99678.53;;;6.34;81.72
59877;BME280;45749;51.140;17.184;2022-12-29T03:44:55;99672.81;;;6.34;81.95
59877;BME280;45749;51.140;17.184;2022-12-29T03:47:22;99670.30;;;6.33;82.11
59877;BME280;45749;51.140;17.184;2022-12-29T03:49:49;99668.16;;;6.32;82.33
59877;BME280;45749;51.140;17.184;2022-12-29T03:52:16;99667.33;;;6.32;82.31
59877;BME280;45749;51.140;17.184;2022-12-29T03:54:42;99662.53;;;6.31;82.44
59877;BME280;45749;51.140;17.184;2022-12-29T03:57:09;99652.64;;;6.29;82.44
59877;BME280;45749;51.140;17.184;2022-12-29T03:59:36;99650.49;;;6.29;82.67
59877;BME280;45749;51.140;17.184;2022-12-29T04:02:02;99653.11;;;6.29;82.65
59877;BME280;45749;51.140;17.184;2022-12-29T04:04:29;99654.42;;;6.29;82.52
59877;BME280;45749;51.140;17.184;2022-12-29T04:06:55;99645.97;;;6.31;82.62
59877;BME280;45749;51.140;17.184;2022-12-29T04:09:21;99656.45;;;6.31;82.51
59877;BME280;45749;51.140;17.184;2022-12-29T04:11:47;99655.97;;;6.31;82.48
59877;BME280;45749;51.140;17.184;2022-12-29T04:14:13;99648.98;;;6.32;82.48
59877;BME280;45749;51.140;17.184;2022-12-29T04:16:39;99656.37;;;6.32;82.49
59877;BME280;45749;51.140;17.184;2022-12-29T04:19:06;99647.91;;;6.34;82.39
59877;BME280;45749;51.140;17.184;2022-12-29T04:21:32;99643.63;;;6.33;82.10
59877;BME280;45749;51.140;17.184;2022-12-29T04:23:59;99637.34;;;6.36;82.03
59877;BME280;45749;51.140;17.184;2022-12-29T04:26:25;99638.19;;;6.37;81.93
59877;BME280;45749;51.140;17.184;2022-12-29T04:28:51;99638.07;;;6.38;81.89
59877;BME280;45749;51.140;17.184;2022-12-29T04:31:17;99631.99;;;6.38;81.73
59877;BME280;45749;51.140;17.184;2022-12-29T04:33:43;99630.80;;;6.36;81.55
59877;BME280;45749;51.140;17.184;2022-12-29T04:36:09;99629.84;;;6.37;81.44
59877;BME280;45749;51.140;17.184;2022-12-29T04:38:35;99621.51;;;6.38;81.61
59877;BME280;45749;51.140;17.184;2022-12-29T04:41:01;99614.48;;;6.38;81.41
59877;BME280;45749;51.140;17.184;2022-12-29T04:43:27;99616.74;;;6.37;81.16
59877;BME280;45749;51.140;17.184;2022-12-29T04:45:54;99615.44;;;6.37;81.16
59877;BME280;45749;51.140;17.184;2022-12-29T04:48:20;99618.41;;;6.38;81.01
59877;BME280;45749;51.140;17.184;2022-12-29T04:50:48;99625.08;;;6.37;81.02
59877;BME280;45749;51.140;17.184;2022-12-29T04:53:15;99622.34;;;6.38;80.98
59877;BME280;45749;51.140;17.184;2022-12-29T04:55:42;99624.52;;;6.39;80.86
59877;BME280;45749;51.140;17.184;2022-12-29T04:58:08;99622.82;;;6.38;80.93
59877;BME280;45749;51.140;17.184;2022-12-29T05:00:34;99627.98;;;6.39;81.02
59877;BME280;45749;51.140;17.184;2022-12-29T05:03:00;99626.67;;;6.39;80.79
59877;BME280;45749;51.140;17.184;2022-12-29T05:05:26;99636.20;;;6.40;80.80
59877;BME280;45749;51.140;17.184;2022-12-29T05:07:52;99628.70;;;6.41;80.54
59877;BME280;45749;51.140;17.184;2022-12-29T05:10:18;99620.47;;;6.40;80.64
59877;BME280;45749;51.140;17.184;2022-12-29T05:12:44;99626.08;;;6.41;80.65
59877;BME280;45749;51.140;17.184;2022-12-29T05:15:11;99620.00;;;6.41;80.49
59877;BME280;45749;51.140;17.184;2022-12-29T05:17:37;99617.65;;;6.43;80.37
59877;BME280;45749;51.140;17.184;2022-12-29T05:20:04;99611.09;;;6.43;80.33
59877;BME280;45749;51.140;17.184;2022-12-29T05:22:31;99606.22;;;6.44;80.39
59877;BME280;45749;51.140;17.184;2022-12-29T05:24:56;99602.28;;;6.44;80.39
59877;BME280;45749;51.140;17.184;2022-12-29T05:27:22;99601.37;;;6.45;80.44
59877;BME280;45749;51.140;17.184;2022-12-29T05:29:48;99599.94;;;6.47;80.44
59877;BME280;45749;51.140;17.184;2022-12-29T05:32:14;99598.98;;;6.48;80.37
59877;BME280;45749;51.140;17.184;2022-12-29T05:34:40;99593.30;;;6.48;80.36
59877;BME280;45749;51.140;17.184;2022-12-29T05:37:06;99586.75;;;6.48;80.38
59877;BME280;45749;51.140;17.184;2022-12-29T05:39:32;99587.58;;;6.49;80.32
59877;BME280;45749;51.140;17.184;2022-12-29T05:41:58;99586.52;;;6.51;80.18
59877;BME280;45749;51.140;17.184;2022-12-29T05:44:24;99581.27;;;6.51;80.30
59877;BME280;45749;51.140;17.184;2022-12-29T05:46:50;99579.52;;;6.52;80.15
59877;BME280;45749;51.140;17.184;2022-12-29T05:49:16;99575.11;;;6.52;80.10
59877;BME280;45749;51.140;17.184;2022-12-29T05:51:43;99572.36;;;6.54;80.03
59877;BME280;45749;51.140;17.184;2022-12-29T05:54:09;99572.84;;;6.53;79.94
59877;BME280;45749;51.140;17.184;2022-12-29T05:56:35;99574.16;;;6.53;79.65
59877;BME280;45749;51.140;17.184;2022-12-29T05:59:00;99576.02;;;6.51;79.68
59877;BME280;45749;51.140;17.184;2022-12-29T06:01:29;99574.72;;;6.51;79.73
59877;BME280;45749;51.140;17.184;2022-12-29T06:03:56;99570.07;;;6.49;79.64
59877;BME280;45749;51.140;17.184;2022-12-29T06:06:21;99571.47;;;6.48;79.76
59877;BME280;45749;51.140;17.184;2022-12-29T06:08:47;99569.44;;;6.46;79.61
59877;BME280;45749;51.140;17.184;2022-12-29T06:11:13;99572.53;;;6.45;79.45
59877;BME280;45749;51.140;17.184;2022-12-29T06:13:39;99572.89;;;6.46;79.40
59877;BME280;45749;51.140;17.184;2022-12-29T06:16:05;99567.73;;;6.45;79.30
59877;BME280;45749;51.140;17.184;2022-12-29T06:18:32;99567.73;;;6.45;79.45
59877;BME280;45749;51.140;17.184;2022-12-29T06:21:01;99573.38;;;6.46;79.33
59877;BME280;45749;51.140;17.184;2022-12-29T06:23:28;99560.27;;;6.46;79.42
59877;BME280;45749;51.140;17.184;2022-12-29T06:25:54;99566.34;;;6.46;79.16
59877;BME280;45749;51.140;17.184;2022-12-29T06:28:20;99574.48;;;6.49;79.00
59877;BME280;45749;51.140;17.184;2022-12-29T06:30:47;99576.02;;;6.51;79.02
59877;BME280;45749;51.140;17.184;2022-12-29T06:33:14;99575.11;;;6.52;79.11
59877;BME280;45749;51.140;17.184;2022-12-29T06:35:42;99575.47;;;6.53;79.01
59877;BME280;45749;51.140;17.184;2022-12-29T06:38:08;99572.64;;;6.56;78.93
59877;BME280;45749;51.140;17.184;2022-12-29T06:40:34;99560.28;;;6.58;78.79
59877;BME280;45749;51.140;17.184;2022-12-29T06:43:00;99550.23;;;6.58;78.84
59877;BME280;45749;51.140;17.184;2022-12-29T06:45:26;99559.80;;;6.59;78.90
59877;BME280;45749;51.140;17.184;2022-12-29T06:47:52;99569.81;;;6.60;78.87
59877;BME280;45749;51.140;17.184;2022-12-29T06:50:18;99571.95;;;6.60;78.77
59877;BME280;45749;51.140;17.184;2022-12-29T06:52:44;99574.48;;;6.62;78.75
59877;BME280;45749;51.140;17.184;2022-12-29T06:55:10;99569.24;;;6.62;78.79
59877;BME280;45749;51.140;17.184;2022-12-29T06:57:36;99573.06;;;6.63;78.82
59877;BME280;45749;51.140;17.184;2022-12-29T07:00:04;99573.06;;;6.63;78.82
59877;BME280;45749;51.140;17.184;2022-12-29T07:02:30;99583.06;;;6.64;78.83
59877;BME280;45749;51.140;17.184;2022-12-29T07:04:56;99584.38;;;6.64;78.75
59877;BME280;45749;51.140;17.184;2022-12-29T07:07:22;99580.09;;;6.63;78.73
59877;BME280;45749;51.140;17.184;2022-12-29T07:09:48;99583.19;;;6.62;78.63
59877;BME280;45749;51.140;17.184;2022-12-29T07:12:14;99583.75;;;6.60;78.77
59877;BME280;45749;51.140;17.184;2022-12-29T07:14:40;99578.62;;;6.58;78.70
59877;BME280;45749;51.140;17.184;2022-12-29T07:17:06;99577.31;;;6.58;78.68
59877;BME280;45749;51.140;17.184;2022-12-29T07:19:32;99582.56;;;6.58;78.78
59877;BME280;45749;51.140;17.184;2022-12-29T07:21:59;99582.56;;;6.58;78.62
59877;BME280;45749;51.140;17.184;2022-12-29T07:24:25;99585.53;;;6.60;78.72
59877;BME280;45749;51.140;17.184;2022-12-29T07:26:51;99582.44;;;6.60;78.73
59877;BME280;45749;51.140;17.184;2022-12-29T07:29:18;99586.64;;;6.63;78.55
59877;BME280;45749;51.140;17.184;2022-12-29T07:31:44;99587.75;;;6.66;78.72
59877;BME280;45749;51.140;17.184;2022-12-29T07:34:10;99580.59;;;6.68;78.60
59877;BME280;45749;51.140;17.184;2022-12-29T07:36:36;99591.35;;;6.70;78.56
59877;BME280;45749;51.140;17.184;2022-12-29T07:39:02;99582.45;;;6.73;78.65
59877;BME280;45749;51.140;17.184;2022-12-29T07:41:29;99588.80;;;6.76;78.46
59877;BME280;45749;51.140;17.184;2022-12-29T07:43:55;99595.70;;;6.77;78.49
59877;BME280;45749;51.140;17.184;2022-12-29T07:46:21;99592.61;;;6.77;78.29
59877;BME280;45749;51.140;17.184;2022-12-29T07:48:47;99585.34;;;6.75;78.53
59877;BME280;45749;51.140;17.184;2022-12-29T07:51:13;99583.55;;;6.76;78.63
59877;BME280;45749;51.140;17.184;2022-12-29T07:53:39;99587.84;;;6.77;78.46
59877;BME280;45749;51.140;17.184;2022-12-29T07:56:06;99581.77;;;6.76;78.42
59877;BME280;45749;51.140;17.184;2022-12-29T07:58:32;99585.61;;;6.78;78.75
59877;BME280;45749;51.140;17.184;2022-12-29T08:00:58;99582.03;;;6.79;78.77
59877;BME280;45749;51.140;17.184;2022-12-29T08:03:24;99590.16;;;6.81;78.83
59877;BME280;45749;51.140;17.184;2022-12-29T08:05:51;99596.24;;;6.82;78.81
59877;BME280;45749;51.140;17.184;2022-12-29T08:08:17;99589.56;;;6.84;78.81
59877;BME280;45749;51.140;17.184;2022-12-29T08:10:43;99595.56;;;6.86;78.87
59877;BME280;45749;51.140;17.184;2022-12-29T08:13:09;99589.27;;;6.88;78.85
59877;BME280;45749;51.140;17.184;2022-12-29T08:15:38;99587.36;;;6.90;78.63
59877;BME280;45749;51.140;17.184;2022-12-29T08:18:04;99595.86;;;6.94;78.73
59877;BME280;45749;51.140;17.184;2022-12-29T08:20:30;99597.91;;;6.96;78.78
59877;BME280;45749;51.140;17.184;2022-12-29T08:22:56;99593.86;;;6.97;78.88
59877;BME280;45749;51.140;17.184;2022-12-29T08:25:22;99600.33;;;6.99;78.79
59877;BME280;45749;51.140;17.184;2022-12-29T08:27:48;99598.06;;;7.00;78.69
59877;BME280;45749;51.140;17.184;2022-12-29T08:30:14;99595.34;;;7.01;78.97
59877;BME280;45749;51.140;17.184;2022-12-29T08:32:40;99601.78;;;7.03;78.96
59877;BME280;45749;51.140;17.184;2022-12-29T08:35:06;99610.75;;;7.06;79.07
59877;BME280;45749;51.140;17.184;2022-12-29T08:37:33;99612.81;;;7.08;78.99
59877;BME280;45749;51.140;17.184;2022-12-29T08:39:59;99612.59;;;7.11;78.89
59877;BME280;45749;51.140;17.184;2022-12-29T08:42:28;99612.63;;;7.17;78.49
59877;BME280;45749;51.140;17.184;2022-12-29T08:44:56;99609.78;;;7.20;78.81
59877;BME280;45749;51.140;17.184;2022-12-29T08:47:23;99597.77;;;7.23;78.58
59877;BME280;45749;51.140;17.184;2022-12-29T08:49:49;99597.46;;;7.27;78.66
59877;BME280;45749;51.140;17.184;2022-12-29T08:52:15;99599.63;;;7.34;78.56
59877;BME280;45749;51.140;17.184;2022-12-29T08:54:41;99594.07;;;7.38;78.71
59877;BME280;45749;51.140;17.184;2022-12-29T08:57:07;99597.94;;;7.45;78.41
59877;BME280;45749;51.140;17.184;2022-12-29T08:59:33;99605.02;;;7.50;78.66
59877;BME280;45749;51.140;17.184;2022-12-29T09:01:59;99604.20;;;7.56;78.33
59877;BME280;45749;51.140;17.184;2022-12-29T09:04:27;99608.27;;;7.60;78.19
59877;BME280;45749;51.140;17.184;2022-12-29T09:06:53;99608.05;;;7.63;78.07
59877;BME280;45749;51.140;17.184;2022-12-29T09:09:20;99605.69;;;7.65;77.98
59877;BME280;45749;51.140;17.184;2022-12-29T09:11:46;99613.83;;;7.68;77.72
59877;BME280;45749;51.140;17.184;2022-12-29T09:14:12;99618.13;;;7.69;77.88
59877;BME280;45749;51.140;17.184;2022-12-29T09:16:39;99615.85;;;7.70;77.93
59877;BME280;45749;51.140;17.184;2022-12-29T09:19:24;99614.45;;;7.71;77.83
59877;BME280;45749;51.140;17.184;2022-12-29T09:21:50;99620.53;;;7.72;77.60
59877;BME280;45749;51.140;17.184;2022-12-29T09:24:16;99612.08;;;7.74;77.56
59877;BME280;45749;51.140;17.184;2022-12-29T09:26:41;99607.19;;;7.75;77.50
59877;BME280;45749;51.140;17.184;2022-12-29T09:29:07;99603.24;;;7.75;77.51
59877;BME280;45749;51.140;17.184;2022-12-29T09:31:33;99604.55;;;7.75;77.77
59877;BME280;45749;51.140;17.184;2022-12-29T09:33:59;99608.41;;;7.77;77.68
59877;BME280;45749;51.140;17.184;2022-12-29T09:36:25;99605.65;;;7.78;77.76
59877;BME280;45749;51.140;17.184;2022-12-29T09:38:53;99618.66;;;7.80;77.73
59877;BME280;45749;51.140;17.184;2022-12-29T09:41:24;99617.98;;;7.83;77.97
59877;BME280;45749;51.140;17.184;2022-12-29T09:44:29;99612.03;;;7.87;77.79
59877;BME280;45749;51.140;17.184;2022-12-29T09:46:46;99613.84;;;7.92;77.46
59877;BME280;45749;51.140;17.184;2022-12-29T09:49:38;99609.45;;;7.98;77.57
59877;BME280;45749;51.140;17.184;2022-12-29T09:52:25;99607.79;;;8.03;77.42
59877;BME280;45749;51.140;17.184;2022-12-29T09:55:00;99613.08;;;8.08;77.15
59877;BME280;45749;51.140;17.184;2022-12-29T09:57:49;99613.34;;;8.11;77.30
59877;BME280;45749;51.140;17.184;2022-12-29T10:00:20;99605.58;;;8.15;77.35
59877;BME280;45749;51.140;17.184;2022-12-29T10:02:54;99596.51;;;8.19;77.18
59877;BME280;45749;51.140;17.184;2022-12-29T10:05:36;99589.71;;;8.22;77.19
59877;BME280;45749;51.140;17.184;2022-12-29T10:11:05;99581.76;;;8.29;77.41
59877;BME280;45749;51.140;17.184;2022-12-29T10:25:57;99560.63;;;8.36;77.35
59877;BME280;45749;51.140;17.184;2022-12-29T10:28:33;99568.77;;;8.39;77.52
59877;BME280;45749;51.140;17.184;2022-12-29T10:31:00;99571.64;;;8.41;77.49
59877;BME280;45749;51.140;17.184;2022-12-29T10:33:37;99564.27;;;8.47;77.46
59877;BME280;45749;51.140;17.184;2022-12-29T10:36:17;99565.11;;;8.53;77.24
59877;BME280;45749;51.140;17.184;2022-12-29T10:41:44;99561.42;;;8.66;77.34
59877;BME280;45749;51.140;17.184;2022-12-29T10:44:15;99567.05;;;8.73;77.23
59877;BME280;45749;51.140;17.184;2022-12-29T10:46:44;99557.38;;;8.79;77.29
59877;BME280;45749;51.140;17.184;2022-12-29T10:49:18;99553.79;;;8.86;77.18
59877;BME280;45749;51.140;17.184;2022-12-29T10:51:46;99547.19;;;8.91;77.27
59877;BME280;45749;51.140;17.184;2022-12-29T10:54:23;99546.84;;;8.96;77.33
59877;BME280;45749;51.140;17.184;2022-12-29T10:59:55;99555.34;;;9.05;77.42
59877;BME280;45749;51.140;17.184;2022-12-29T11:02:43;99551.02;;;9.10;77.63
59877;BME280;45749;51.140;17.184;2022-12-29T11:08:02;99537.49;;;9.20;77.34
59877;BME280;45749;51.140;17.184;2022-12-29T11:10:37;99537.98;;;9.25;77.20
59877;BME280;45749;51.140;17.184;2022-12-29T11:13:27;99540.58;;;9.31;77.22
59877;BME280;45749;51.140;17.184;2022-12-29T11:15:55;99538.78;;;9.37;77.06
59877;BME280;45749;51.140;17.184;2022-12-29T11:18:24;99539.02;;;9.39;77.23
59877;BME280;45749;51.140;17.184;2022-12-29T11:21:00;99529.80;;;9.39;77.17
59877;BME280;45749;51.140;17.184;2022-12-29T11:23:33;99529.80;;;9.39;77.12
59877;BME280;45749;51.140;17.184;2022-12-29T11:31:49;99525.37;;;9.40;76.27
59877;BME280;45749;51.140;17.184;2022-12-29T11:34:34;99523.22;;;9.39;76.00
59877;BME280;45749;51.140;17.184;2022-12-29T11:37:10;99523.22;;;9.39;76.33
59877;BME280;45749;51.140;17.184;2022-12-29T11:40:03;99512.69;;;9.39;76.34
59877;BME280;45749;51.140;17.184;2022-12-29T11:42:22;99512.09;;;9.42;76.21
59877;BME280;45749;51.140;17.184;2022-12-29T11:44:56;99508.84;;;9.44;75.86
59877;BME280;45749;51.140;17.184;2022-12-29T11:47:30;99511.95;;;9.43;76.08
59877;BME280;45749;51.140;17.184;2022-12-29T11:50:03;99506.69;;;9.43;76.10
59877;BME280;45749;51.140;17.184;2022-12-29T11:52:36;99510.53;;;9.45;76.29
59877;BME280;45749;51.140;17.184;2022-12-29T11:55:16;99514.48;;;9.45;76.20
59877;BME280;45749;51.140;17.184;2022-12-29T11:57:36;99505.96;;;9.47;76.27
59877;BME280;45749;51.140;17.184;2022-12-29T12:00:14;99484.31;;;9.37;76.21
59877;BME280;45749;51.140;17.184;2022-12-29T12:10:53;99507.72;;;9.57;76.18
59877;BME280;45749;51.140;17.184;2022-12-29T12:13:25;99507.47;;;9.60;76.37
59877;BME280;45749;51.140;17.184;2022-12-29T12:15:57;99507.22;;;9.63;76.34
59877;BME280;45749;51.140;17.184;2022-12-29T12:18:32;99502.67;;;9.66;76.36
59877;BME280;45749;51.140;17.184;2022-12-29T12:21:13;99489.73;;;9.68;76.31
59877;BME280;45749;51.140;17.184;2022-12-29T12:24:03;99486.13;;;9.69;76.25
59877;BME280;45749;51.140;17.184;2022-12-29T12:26:53;99490.57;;;9.69;76.32
59877;BME280;45749;51.140;17.184;2022-12-29T12:29:33;99486.38;;;9.66;76.41
59877;BME280;45749;51.140;17.184;2022-12-29T12:32:13;99490.95;;;9.64;76.37
59877;BME280;45749;51.140;17.184;2022-12-29T12:34:43;99486.88;;;9.60;76.35
59877;BME280;45749;51.140;17.184;2022-12-29T12:44:00;99481.04;;;9.51;76.62
59877;BME280;45749;51.140;17.184;2022-12-29T12:46:27;99483.95;;;9.48;76.82
59877;BME280;45749;51.140;17.184;2022-12-29T13:00:57;99489.80;;;9.51;76.72
59877;BME280;45749;51.140;17.184;2022-12-29T13:03:43;99485.37;;;9.52;76.84
59877;BME280;45749;51.140;17.184;2022-12-29T13:20:49;99491.37;;;9.43;77.62
59877;BME280;45749;51.140;17.184;2022-12-29T13:23:46;99489.33;;;9.40;77.64
59877;BME280;45749;51.140;17.184;2022-12-29T13:26:26;99488.16;;;9.39;77.79
59877;BME280;45749;51.140;17.184;2022-12-29T13:38:34;99490.55;;;9.36;78.14
59877;BME280;45749;51.140;17.184;2022-12-29T13:41:12;99495.33;;;9.37;78.26
59877;BME280;45749;51.140;17.184;2022-12-29T13:43:41;99491.63;;;9.39;78.29
59877;BME280;45749;51.140;17.184;2022-12-29T13:46:27;99501.42;;;9.43;78.40
59877;BME280;45749;51.140;17.184;2022-12-29T13:49:17;99505.13;;;9.46;78.37
59877;BME280;45749;51.140;17.184;2022-12-29T13:51:53;99514.20;;;9.53;78.31
59877;BME280;45749;51.140;17.184;2022-12-29T13:59:57;99513.20;;;9.71;77.83
59877;BME280;45749;51.140;17.184;2022-12-29T14:08:04;99529.00;;;9.71;77.37
59877;BME280;45749;51.140;17.184;2022-12-29T14:10:46;99526.97;;;9.69;77.33
59877;BME280;45749;51.140;17.184;2022-12-29T14:13:25;99529.84;;;9.66;77.24
59877;BME280;45749;51.140;17.184;2022-12-29T14:15:57;99532.73;;;9.63;77.05
59877;BME280;45749;51.140;17.184;2022-12-29T14:18:30;99532.28;;;9.58;76.64
59877;BME280;45749;51.140;17.184;2022-12-29T14:21:00;99535.75;;;9.53;76.64
59877;BME280;45749;51.140;17.184;2022-12-29T14:23:37;99536.25;;;9.47;76.46
59877;BME280;45749;51.140;17.184;2022-12-29T14:28:41;99537.95;;;9.36;76.52
59877;BME280;45749;51.140;17.184;2022-12-29T14:36:52;99532.81;;;9.29;76.42
59877;BME280;45749;51.140;17.184;2022-12-29T14:39:40;99531.26;;;9.27;76.48
59877;BME280;45749;51.140;17.184;2022-12-29T14:42:14;99532.09;;;9.27;76.45
59877;BME280;45749;51.140;17.184;2022-12-29T14:47:40;99540.61;;;9.25;76.22
59877;BME280;45749;51.140;17.184;2022-12-29T14:50:16;99531.26;;;9.21;76.40
59877;BME280;45749;51.140;17.184;2022-12-29T14:53:04;99529.84;;;9.17;76.44
59877;BME280;45749;51.140;17.184;2022-12-29T14:55:55;99528.89;;;9.12;76.33
59877;BME280;45749;51.140;17.184;2022-12-29T14:58:31;99543.50;;;9.05;76.43
59877;BME280;45749;51.140;17.184;2022-12-29T15:01:00;99543.15;;;8.99;76.24
59877;BME280;45749;51.140;17.184;2022-12-29T15:03:48;99540.27;;;8.90;76.10
59877;BME280;45749;51.140;17.184;2022-12-29T15:06:17;99536.31;;;8.85;76.17
59877;BME280;45749;51.140;17.184;2022-12-29T15:17:22;99547.42;;;8.49;76.25
59877;BME280;45749;51.140;17.184;2022-12-29T15:19:38;99540.23;;;8.40;76.37
59877;BME280;45749;51.140;17.184;2022-12-29T15:22:05;99543.03;;;8.31;76.39
59877;BME280;45749;51.140;17.184;2022-12-29T15:24:32;99547.44;;;8.25;76.47
59877;BME280;45749;51.140;17.184;2022-12-29T15:27:02;99548.63;;;8.21;76.75
59877;BME280;45749;51.140;17.184;2022-12-29T15:29:40;99550.30;;;8.16;76.62
59877;BME280;45749;51.140;17.184;2022-12-29T15:32:19;99557.58;;;8.13;76.73
59877;BME280;45749;51.140;17.184;2022-12-29T15:34:49;99552.55;;;8.10;76.65
59877;BME280;45749;51.140;17.184;2022-12-29T15:37:26;99558.03;;;8.07;76.65
59877;BME280;45749;51.140;17.184;2022-12-29T15:39:55;99556.33;;;8.06;76.59
59877;BME280;45749;51.140;17.184;2022-12-29T15:42:27;99553.70;;;8.06;76.54
59877;BME280;45749;51.140;17.184;2022-12-29T15:45:11;99549.89;;;8.04;76.56
59877;BME280;45749;51.140;17.184;2022-12-29T15:47:40;99556.11;;;8.03;76.59